createdAt,value
2022-08-10T00:01:53.737Z,101886.00
2022-08-10T00:04:22.436Z,101881.94
2022-08-10T00:06:53.573Z,101886.34
2022-08-10T00:09:21.027Z,101880.09
2022-08-10T00:11:47.456Z,101882.75
2022-08-10T00:14:13.885Z,101881.19
2022-08-10T00:16:40.463Z,101877.78
2022-08-10T00:19:06.890Z,101881.19
2022-08-10T00:21:33.303Z,101872.91
2022-08-10T00:23:59.725Z,101877.78
2022-08-10T00:26:26.119Z,101881.81
2022-08-10T00:28:52.554Z,101872.56
2022-08-10T00:31:18.964Z,101865.88
2022-08-10T00:33:45.378Z,101869.59
2022-08-10T00:36:11.912Z,101870.50
2022-08-10T00:38:38.329Z,101874.31
2022-08-10T00:41:04.911Z,101880.63
2022-08-10T00:43:31.553Z,101875.63
2022-08-10T00:45:59.129Z,101870.94
2022-08-10T00:48:28.311Z,101879.66
2022-08-10T00:50:54.984Z,101876.88
2022-08-10T00:53:21.544Z,101872.94
2022-08-10T00:57:12.725Z,101875.28
2022-08-10T00:58:35.466Z,101869.94
2022-08-10T01:01:02.019Z,101876.44
2022-08-10T01:04:36.497Z,101880.50
2022-08-10T01:06:32.451Z,101882.38
2022-08-10T01:09:21.832Z,101879.16
2022-08-10T01:12:34.271Z,101880.00
2022-08-10T01:14:52.111Z,101875.19
2022-08-10T01:17:50.384Z,101866.91
2022-08-10T01:20:30.039Z,101866.31
2022-08-10T01:23:25.433Z,101866.53
2022-08-10T01:26:30.373Z,101865.50
2022-08-10T01:29:25.207Z,101872.56
2022-08-10T01:31:54.006Z,101857.75
2022-08-10T01:34:34.113Z,101866.41
2022-08-10T01:37:05.595Z,101861.16
2022-08-10T01:39:39.701Z,101856.97
2022-08-10T01:42:07.032Z,101850.84
2022-08-10T01:44:39.854Z,101851.81
2022-08-10T01:47:30.117Z,101847.81
2022-08-10T01:50:02.600Z,101849.38
2022-08-10T01:52:29.823Z,101853.31
2022-08-10T01:54:57.150Z,101846.09
2022-08-10T01:57:24.690Z,101854.75
2022-08-10T01:59:54.542Z,101850.00
2022-08-10T02:02:29.156Z,101855.91
2022-08-10T02:04:55.926Z,101853.31
2022-08-10T02:07:25.400Z,101852.06
2022-08-10T02:09:53.724Z,101850.13
2022-08-10T02:12:23.240Z,101848.94
2022-08-10T02:14:59.470Z,101848.47
2022-08-10T02:17:58.687Z,101850.25
2022-08-10T02:20:18.794Z,101850.38
2022-08-10T02:22:49.343Z,101851.06
2022-08-10T02:25:42.676Z,101854.31
2022-08-10T02:28:05.091Z,101845.97
2022-08-10T02:30:32.260Z,101844.44
2022-08-10T02:32:59.028Z,101855.22
2022-08-10T02:35:27.120Z,101851.69
2022-08-10T02:38:00.204Z,101849.66
2022-08-10T02:45:02.708Z,101856.88
2022-08-10T02:45:15.406Z,101864.19
2022-08-10T02:46:18.421Z,101855.41
2022-08-10T02:48:52.035Z,101857.63
2022-08-10T02:52:06.855Z,101859.28
2022-08-10T02:54:22.129Z,101863.34
2022-08-10T02:56:55.465Z,101865.41
2022-08-10T02:59:39.667Z,101861.72
2022-08-10T03:02:08.826Z,101866.00
2022-08-10T03:04:54.580Z,101876.59
2022-08-10T03:07:43.434Z,101869.28
2022-08-10T03:10:14.530Z,101865.47
2022-08-10T03:12:42.587Z,101868.00
2022-08-10T03:15:15.595Z,101864.97
2022-08-10T03:17:57.403Z,101872.31
2022-08-10T03:20:38.118Z,101866.75
2022-08-10T03:23:11.638Z,101871.84
2022-08-10T03:25:37.964Z,101880.03
2022-08-10T03:28:04.888Z,101870.88
2022-08-10T03:30:33.937Z,101874.41
2022-08-10T03:33:03.166Z,101871.09
2022-08-10T03:35:29.680Z,101877.00
2022-08-10T03:37:59.170Z,101871.78
2022-08-10T03:40:45.798Z,101868.19
2022-08-10T03:43:16.014Z,101863.78
2022-08-10T03:45:49.421Z,101877.28
2022-08-10T03:48:23.878Z,101869.22
2022-08-10T03:50:52.021Z,101861.28
2022-08-10T03:53:24.332Z,101868.22
2022-08-10T03:56:30.341Z,101869.22
2022-08-10T03:58:52.584Z,101862.75
2022-08-10T04:01:19.645Z,101868.81
2022-08-10T04:03:46.151Z,101866.31
2022-08-10T04:06:12.834Z,101866.34
2022-08-10T04:08:43.206Z,101861.94
2022-08-10T04:11:10.445Z,101861.28
2022-08-10T04:13:37.916Z,101857.09
2022-08-10T04:16:07.454Z,101859.22
2022-08-10T04:18:34.181Z,101853.66
2022-08-10T04:21:12.643Z,101858.25
2022-08-10T04:23:43.590Z,101859.69
2022-08-10T04:26:11.675Z,101858.50
2022-08-10T04:28:38.373Z,101859.81
2022-08-10T04:31:06.463Z,101854.94
2022-08-10T04:33:33.434Z,101866.97
2022-08-10T04:36:00.733Z,101871.03
2022-08-10T04:38:27.726Z,101863.91
2022-08-10T04:40:54.322Z,101870.25
2022-08-10T04:43:20.919Z,101870.16
2022-08-10T04:45:51.694Z,101864.94
2022-08-10T04:48:40.551Z,101867.66
2022-08-10T04:51:07.941Z,101858.00
2022-08-10T04:54:03.345Z,101862.53
2022-08-10T04:56:31.600Z,101865.13
2022-08-10T04:58:59.120Z,101866.31
2022-08-10T05:01:26.480Z,101869.00
2022-08-10T05:04:37.568Z,101869.56
2022-08-10T05:06:39.380Z,101878.59
2022-08-10T05:09:05.784Z,101872.38
2022-08-10T05:11:32.186Z,101874.66
2022-08-10T05:13:58.619Z,101878.28
2022-08-10T05:16:31.622Z,101877.72
2022-08-10T05:18:58.656Z,101877.63
2022-08-10T05:22:02.524Z,101881.66
2022-08-10T05:24:11.682Z,101875.22
2022-08-10T05:26:55.323Z,101885.28
2022-08-10T05:29:24.500Z,101883.75
2022-08-10T05:31:51.217Z,101879.53
2022-08-10T05:34:20.323Z,101874.00
2022-08-10T05:36:47.993Z,101877.59
2022-08-10T05:39:15.309Z,101880.78
2022-08-10T05:41:46.105Z,101892.47
2022-08-10T05:44:14.303Z,101880.56
2022-08-10T05:46:41.194Z,101877.84
2022-08-10T05:49:07.606Z,101881.25
2022-08-10T05:51:34.011Z,101878.81
2022-08-10T05:54:06.070Z,101875.94
2022-08-10T05:56:54.970Z,101873.31
2022-08-10T06:00:12.648Z,101875.94
2022-08-10T06:02:32.079Z,101880.22
2022-08-10T06:04:57.519Z,101877.19
2022-08-10T06:07:27.281Z,101874.69
2022-08-10T06:09:58.662Z,101876.88
2022-08-10T06:12:29.805Z,101883.81
2022-08-10T06:15:05.989Z,101883.69
2022-08-10T06:17:37.203Z,101887.94
2022-08-10T06:20:04.095Z,101888.81
2022-08-10T06:22:33.916Z,101892.13
2022-08-10T06:27:50.841Z,101875.75
2022-08-10T06:30:21.003Z,101881.69
2022-08-10T06:32:51.936Z,101880.06
2022-08-10T06:35:19.266Z,101880.22
2022-08-10T06:37:50.601Z,101877.94
2022-08-10T06:40:19.098Z,101881.22
2022-08-10T06:42:48.595Z,101891.34
2022-08-10T06:45:21.257Z,101886.97
2022-08-10T06:47:59.555Z,101877.84
2022-08-10T06:50:59.082Z,101876.69
2022-08-10T06:53:53.305Z,101876.50
2022-08-10T06:56:18.786Z,101871.19
2022-08-10T06:58:49.744Z,101874.06
2022-08-10T07:01:20.830Z,101869.63
2022-08-10T07:03:54.279Z,101870.38
2022-08-10T07:06:21.254Z,101874.59
2022-08-10T07:08:49.020Z,101874.44
2022-08-10T07:11:15.871Z,101882.47
2022-08-10T07:14:17.434Z,101868.31
2022-08-10T07:16:30.385Z,101871.13
2022-08-10T07:18:58.094Z,101870.97
2022-08-10T07:21:26.712Z,101871.44
2022-08-10T07:23:58.185Z,101866.34
2022-08-10T07:26:27.338Z,101874.16
2022-08-10T07:28:54.340Z,101865.03
2022-08-10T07:31:55.236Z,101854.66
2022-08-10T07:34:09.225Z,101862.03
2022-08-10T07:36:37.069Z,101858.88
2022-08-10T07:39:05.228Z,101862.66
2022-08-10T07:41:33.150Z,101863.50
2022-08-10T07:44:03.013Z,101863.56
2022-08-10T07:46:30.416Z,101862.06
2022-08-10T07:49:19.270Z,101862.03
2022-08-10T07:51:54.539Z,101865.44
2022-08-10T07:54:23.398Z,101863.19
2022-08-10T07:56:54.112Z,101872.56
2022-08-10T07:59:23.661Z,101861.25
2022-08-10T08:01:53.692Z,101864.66
2022-08-10T08:04:22.322Z,101862.97
2022-08-10T08:06:50.188Z,101857.56
2022-08-10T08:09:18.639Z,101855.09
2022-08-10T08:11:46.519Z,101851.94
2022-08-10T08:14:14.843Z,101854.09
2022-08-10T08:16:44.316Z,101854.41
2022-08-10T08:19:28.435Z,101862.38
2022-08-10T08:24:10.319Z,101853.50
2022-08-10T08:24:45.886Z,101857.97
2022-08-10T08:27:16.065Z,101856.63
2022-08-10T08:29:44.973Z,101856.81
2022-08-10T08:32:12.754Z,101860.22
2022-08-10T08:34:42.795Z,101851.13
2022-08-10T08:37:11.127Z,101846.53
2022-08-10T08:39:38.155Z,101850.72
2022-08-10T08:42:19.881Z,101851.72
2022-08-10T08:45:17.646Z,101843.72
2022-08-10T08:48:21.189Z,101840.59
2022-08-10T08:50:57.810Z,101841.00
2022-08-10T08:54:01.817Z,101829.03
2022-08-10T08:56:50.434Z,101830.97
2022-08-10T08:59:47.224Z,101832.50
2022-08-10T09:02:54.719Z,101832.47
2022-08-10T09:05:58.376Z,101823.06
2022-08-10T09:08:36.547Z,101814.94
2022-08-10T09:11:23.676Z,101808.75
2022-08-10T09:14:16.786Z,101810.47
2022-08-10T09:17:00.003Z,101799.41
2022-08-10T09:19:48.631Z,101803.63
2022-08-10T09:22:26.123Z,101799.75
2022-08-10T09:25:01.064Z,101801.44
2022-08-10T09:27:43.351Z,101798.31
2022-08-10T09:30:11.673Z,101784.06
2022-08-10T09:33:05.413Z,101792.28
2022-08-10T09:36:29.349Z,101784.69
2022-08-10T09:38:57.248Z,101786.25
2022-08-10T09:41:43.304Z,101788.22
2022-08-10T09:44:58.238Z,101783.47
2022-08-10T09:47:59.942Z,101768.38
2022-08-10T09:51:16.271Z,101770.88
2022-08-10T09:53:43.408Z,101760.97
2022-08-10T09:56:28.247Z,101763.38
2022-08-10T09:59:26.838Z,101756.34
2022-08-10T10:02:18.988Z,101759.16
2022-08-10T10:05:20.887Z,101764.06
2022-08-10T10:07:58.222Z,101750.63
2022-08-10T10:10:30.548Z,101751.91
2022-08-10T10:13:00.612Z,101738.38
2022-08-10T10:15:51.215Z,101740.59
2022-08-10T10:18:27.264Z,101734.41
2022-08-10T10:21:55.578Z,101739.16
2022-08-10T10:24:34.306Z,101735.50
2022-08-10T10:27:15.963Z,101725.03
2022-08-10T10:30:11.823Z,101729.34
2022-08-10T10:32:57.649Z,101727.22
2022-08-10T10:35:37.043Z,101721.00
2022-08-10T10:38:07.146Z,101716.69
2022-08-10T10:40:49.951Z,101708.91
2022-08-10T10:43:35.098Z,101718.25
2022-08-10T10:46:23.262Z,101713.72
2022-08-10T10:49:07.633Z,101716.06
2022-08-10T10:51:40.507Z,101718.75
2022-08-10T10:54:16.004Z,101713.97
2022-08-10T10:56:54.570Z,101699.09
2022-08-10T10:59:55.873Z,101698.59
2022-08-10T11:02:19.364Z,101698.00
2022-08-10T11:04:58.431Z,101697.94
2022-08-10T11:07:31.996Z,101690.22
2022-08-10T11:10:31.756Z,101689.34
2022-08-10T11:13:03.029Z,101684.09
2022-08-10T11:16:08.906Z,101687.31
2022-08-10T11:18:35.247Z,101695.53
2022-08-10T11:21:28.197Z,101687.38
2022-08-10T11:24:47.820Z,101690.09
2022-08-10T11:27:30.241Z,101677.91
2022-08-10T11:30:05.720Z,101675.28
2022-08-10T11:32:37.574Z,101681.41
2022-08-10T11:35:19.581Z,101673.31
2022-08-10T11:38:28.525Z,101662.84
2022-08-10T11:42:07.950Z,101654.81
2022-08-10T11:44:29.550Z,101662.03
2022-08-10T11:46:58.927Z,101652.22
2022-08-10T11:49:51.711Z,101655.78
2022-08-10T11:52:35.663Z,101644.97
2022-08-10T11:55:22.794Z,101646.84
2022-08-10T11:57:54.047Z,101645.84
2022-08-10T12:00:22.487Z,101640.41
2022-08-10T12:03:00.214Z,101643.22
2022-08-10T12:05:52.574Z,101631.53
2022-08-10T12:10:04.616Z,101635.13
2022-08-10T12:11:23.558Z,101643.97
2022-08-10T12:14:23.055Z,101637.50
2022-08-10T12:17:00.828Z,101629.22
2022-08-10T12:19:59.836Z,101633.69
2022-08-10T12:22:28.162Z,101629.06
2022-08-10T12:25:08.534Z,101628.41
2022-08-10T12:27:47.844Z,101629.38
2022-08-10T12:30:15.809Z,101624.84
2022-08-10T12:32:54.838Z,101625.63
2022-08-10T12:36:01.680Z,101618.50
2022-08-10T12:38:39.621Z,101624.09
2022-08-10T12:41:43.561Z,101616.47
2022-08-10T12:44:41.474Z,101609.41
2022-08-10T12:47:23.810Z,101601.56
2022-08-10T12:50:29.441Z,101602.31
2022-08-10T12:52:51.765Z,101584.06
2022-08-10T12:55:19.658Z,101589.97
2022-08-10T12:57:52.619Z,101591.06
2022-08-10T13:00:19.268Z,101586.41
2022-08-10T13:02:48.944Z,101578.19
2022-08-10T13:05:15.942Z,101577.06
2022-08-10T13:08:24.152Z,101576.88
2022-08-10T13:10:31.188Z,101572.88
2022-08-10T13:12:58.494Z,101568.47
2022-08-10T13:15:49.010Z,101568.97
2022-08-10T13:18:19.666Z,101563.81
2022-08-10T13:20:51.343Z,101559.16
2022-08-10T13:23:21.605Z,101561.16
2022-08-10T13:25:48.594Z,101551.38
2022-08-10T13:28:37.489Z,101556.16
2022-08-10T13:31:11.386Z,101550.81
2022-08-10T13:34:40.734Z,101545.00
2022-08-10T13:36:41.669Z,101542.88
2022-08-10T13:39:08.663Z,101538.00
2022-08-10T13:41:41.001Z,101536.47
2022-08-10T13:44:09.691Z,101535.25
2022-08-10T13:46:40.304Z,101533.28
2022-08-10T13:49:08.151Z,101536.47
2022-08-10T13:51:57.523Z,101534.34
2022-08-10T13:54:30.611Z,101529.22
2022-08-10T13:56:57.887Z,101524.66
2022-08-10T14:00:34.427Z,101525.59
2022-08-10T14:02:17.446Z,101520.59
2022-08-10T14:04:47.850Z,101524.81
2022-08-10T14:07:16.267Z,101516.59
2022-08-10T14:09:43.623Z,101511.44
2022-08-10T14:12:11.536Z,101519.91
2022-08-10T14:14:38.928Z,101523.84
2022-08-10T14:17:06.814Z,101526.47
2022-08-10T14:19:37.515Z,101520.47
2022-08-10T14:22:09.866Z,101516.38
2022-08-10T14:24:36.606Z,101512.06
2022-08-10T14:27:08.795Z,101503.31
2022-08-10T14:29:42.247Z,101512.50
2022-08-10T14:32:10.470Z,101495.91
2022-08-10T14:36:14.765Z,101501.94
2022-08-10T14:37:37.771Z,101505.16
2022-08-10T14:40:11.616Z,101501.25
2022-08-10T14:42:44.394Z,101499.09
2022-08-10T14:45:33.014Z,101502.25
2022-08-10T14:48:10.178Z,101503.44
2022-08-10T14:50:38.389Z,101500.84
2022-08-10T14:53:26.779Z,101503.94
2022-08-10T14:55:58.670Z,101504.69
2022-08-10T14:58:30.910Z,101496.88
2022-08-10T15:00:58.318Z,101495.25
2022-08-10T15:03:59.401Z,101490.44
2022-08-10T15:06:18.321Z,101488.38
2022-08-10T15:08:47.243Z,101485.66
2022-08-10T15:12:14.804Z,101482.44
2022-08-10T15:14:38.767Z,101487.59
2022-08-10T15:16:49.785Z,101488.66
2022-08-10T15:20:03.458Z,101483.63
2022-08-10T15:22:18.039Z,101486.47
2022-08-10T15:25:00.374Z,101474.56
2022-08-10T15:27:55.063Z,101471.28
2022-08-10T15:30:30.258Z,101474.88
2022-08-10T15:34:02.947Z,101479.31
2022-08-10T15:36:35.428Z,101473.88
2022-08-10T15:39:16.456Z,101473.88
2022-08-10T15:42:01.939Z,101480.16
2022-08-10T15:44:38.984Z,101473.88
2022-08-10T15:47:09.067Z,101468.75
2022-08-10T15:49:45.204Z,101477.75
2022-08-10T15:52:39.815Z,101478.75
2022-08-10T15:55:42.852Z,101472.47
2022-08-10T15:58:07.865Z,101475.19
2022-08-10T16:00:38.155Z,101464.72
2022-08-10T16:03:13.136Z,101469.91
2022-08-10T16:06:02.225Z,101469.94
2022-08-10T16:08:37.588Z,101468.28
2022-08-10T16:11:28.197Z,101479.00
2022-08-10T16:14:12.273Z,101464.53
2022-08-10T16:16:40.295Z,101463.56
2022-08-10T16:19:22.272Z,101463.34
2022-08-10T16:21:56.232Z,101461.88
2022-08-10T16:24:24.537Z,101457.47
2022-08-10T16:26:52.536Z,101455.69
2022-08-10T16:29:24.606Z,101462.06
2022-08-10T16:31:54.393Z,101457.50
2022-08-10T16:34:22.572Z,101457.47
2022-08-10T16:36:57.974Z,101456.47
2022-08-10T16:39:59.717Z,101446.91
2022-08-10T16:42:18.562Z,101453.09
2022-08-10T16:45:17.666Z,101452.19
2022-08-10T16:47:46.594Z,101446.94
2022-08-10T16:50:15.846Z,101449.72
2022-08-10T16:52:43.732Z,101451.50
2022-08-10T16:55:19.490Z,101452.38
2022-08-10T16:57:53.440Z,101449.72
2022-08-10T17:00:22.402Z,101451.50
2022-08-10T17:02:51.432Z,101447.06
2022-08-10T17:06:03.461Z,101438.16
2022-08-10T17:08:08.584Z,101443.44
2022-08-10T17:10:35.883Z,101439.00
2022-08-10T17:13:07.308Z,101438.13
2022-08-10T17:15:34.072Z,101440.75
2022-08-10T17:18:03.232Z,101445.13
2022-08-10T17:20:39.581Z,101448.63
2022-08-10T17:23:09.755Z,101451.25
2022-08-10T17:25:48.200Z,101446.72
2022-08-10T17:28:34.486Z,101438.72
2022-08-10T17:31:23.728Z,101436.91
2022-08-10T17:33:55.612Z,101439.50
2022-08-10T17:36:23.863Z,101433.28
2022-08-10T17:38:51.603Z,101430.56
2022-08-10T17:41:23.844Z,101437.69
2022-08-10T17:44:01.911Z,101435.69
2022-08-10T17:46:34.523Z,101431.09
2022-08-10T17:49:06.039Z,101428.63
2022-08-10T17:51:32.911Z,101435.75
2022-08-10T17:54:00.503Z,101435.50
2022-08-10T17:56:31.817Z,101436.25
2022-08-10T17:59:00.877Z,101431.91
2022-08-10T18:01:40.220Z,101430.28
2022-08-10T18:04:19.300Z,101430.13
2022-08-10T18:06:52.492Z,101429.84
2022-08-10T18:09:27.143Z,101436.94
2022-08-10T18:12:01.777Z,101443.97
2022-08-10T18:14:33.025Z,101443.09
2022-08-10T18:17:08.584Z,101439.75
2022-08-10T18:19:35.030Z,101446.66
2022-08-10T18:22:02.984Z,101435.16
2022-08-10T18:24:30.172Z,101443.72
2022-08-10T18:26:56.719Z,101451.63
2022-08-10T18:29:27.539Z,101447.19
2022-08-10T18:32:01.380Z,101447.06
2022-08-10T18:34:30.161Z,101449.53
2022-08-10T18:36:57.138Z,101453.09
2022-08-10T18:39:35.370Z,101469.69
2022-08-10T18:42:25.992Z,101465.91
2022-08-10T18:44:55.330Z,101463.94
2022-08-10T18:47:31.172Z,101461.31
2022-08-10T18:50:12.403Z,101458.53
2022-08-10T18:52:42.696Z,101453.16
2022-08-10T18:55:27.173Z,101459.31
2022-08-10T18:58:00.826Z,101459.00
2022-08-10T19:00:34.066Z,101471.16
2022-08-10T19:03:05.187Z,101473.56
2022-08-10T19:05:53.116Z,101477.53
2022-08-10T19:08:31.017Z,101475.94
2022-08-10T19:11:03.812Z,101484.34
2022-08-10T19:13:59.407Z,101481.59
2022-08-10T19:16:36.346Z,101486.81
2022-08-10T19:19:21.775Z,101485.06
2022-08-10T19:22:09.376Z,101489.69
2022-08-10T19:25:09.790Z,101486.00
2022-08-10T19:28:01.166Z,101489.31
2022-08-10T19:30:35.681Z,101489.59
2022-08-10T19:33:18.174Z,101487.13
2022-08-10T19:36:03.990Z,101489.22
2022-08-10T19:39:00.868Z,101487.31
2022-08-10T19:42:11.473Z,101491.31
2022-08-10T19:45:00.312Z,101495.78
2022-08-10T19:47:45.545Z,101502.63
2022-08-10T19:50:24.119Z,101503.09
2022-08-10T19:53:05.904Z,101503.84
2022-08-10T19:55:43.291Z,101497.47
2022-08-10T19:58:21.485Z,101502.97
2022-08-10T20:00:58.995Z,101498.31
2022-08-10T20:03:35.875Z,101504.13
2022-08-10T20:06:20.407Z,101503.50
2022-08-10T20:09:01.640Z,101506.88
2022-08-10T20:11:46.155Z,101503.19
2022-08-10T20:14:22.258Z,101503.88
2022-08-10T20:16:51.380Z,101507.13
2022-08-10T20:19:53.459Z,101507.53
2022-08-10T20:22:29.360Z,101502.84
2022-08-10T20:25:17.666Z,101504.69
2022-08-10T20:27:59.836Z,101500.97
2022-08-10T20:30:31.448Z,101502.31
2022-08-10T20:33:09.119Z,101499.09
2022-08-10T20:36:07.999Z,101505.84
2022-08-10T20:38:58.069Z,101502.16
2022-08-10T20:41:57.925Z,101502.38
2022-08-10T20:44:43.358Z,101507.41
2022-08-10T20:47:53.973Z,101506.06
2022-08-10T20:50:46.215Z,101513.41
2022-08-10T20:53:15.527Z,101511.97
2022-08-10T20:55:54.459Z,101512.84
2022-08-10T20:58:33.173Z,101525.78
2022-08-10T21:01:19.170Z,101523.78
2022-08-10T21:04:13.108Z,101524.91
2022-08-10T21:06:53.253Z,101527.16
2022-08-10T21:09:57.325Z,101521.06
2022-08-10T21:12:44.094Z,101523.84
2022-08-10T21:15:41.827Z,101520.56
2022-08-10T21:18:22.219Z,101522.31
2022-08-10T21:24:04.202Z,101521.56
2022-08-10T21:26:46.078Z,101520.25
2022-08-10T21:29:37.991Z,101528.94
2022-08-10T21:32:13.626Z,101521.75
2022-08-10T21:35:02.984Z,101517.63
2022-08-10T21:38:08.589Z,101518.22
2022-08-10T21:41:18.298Z,101527.00
2022-08-10T21:44:18.277Z,101520.16
2022-08-10T21:47:12.544Z,101527.75
2022-08-10T21:50:18.526Z,101532.25
2022-08-10T21:53:43.695Z,101522.72
2022-08-10T21:56:51.047Z,101526.41
2022-08-10T21:59:56.953Z,101522.41
2022-08-10T22:02:49.789Z,101516.03
2022-08-10T22:05:41.955Z,101513.56
2022-08-10T22:08:29.537Z,101515.81
2022-08-10T22:11:16.325Z,101517.28
2022-08-10T22:14:04.932Z,101509.91
2022-08-10T22:17:02.309Z,101503.53
2022-08-10T22:19:54.759Z,101517.97
2022-08-10T22:26:19.822Z,101511.88
2022-08-10T22:29:09.843Z,101505.56
2022-08-10T22:31:24.559Z,101520.19
2022-08-10T22:31:27.041Z,101517.38
2022-08-10T22:32:33.357Z,101505.44
2022-08-10T22:35:18.449Z,101507.63
2022-08-10T22:38:22.025Z,101518.50
2022-08-10T22:41:07.987Z,101518.22
2022-08-10T22:43:53.507Z,101512.00
2022-08-10T22:46:43.889Z,101516.25
2022-08-10T22:49:10.615Z,101515.56
2022-08-10T22:51:56.687Z,101510.09
2022-08-10T22:54:58.403Z,101510.56
2022-08-10T22:57:43.978Z,101509.34
2022-08-10T23:00:30.689Z,101501.41
2022-08-10T23:03:22.103Z,101508.16
2022-08-10T23:05:56.194Z,101502.22
2022-08-10T23:08:45.529Z,101511.31
2022-08-10T23:11:22.974Z,101505.94
2022-08-10T23:14:01.287Z,101502.22
2022-08-10T23:16:47.854Z,101509.06
2022-08-10T23:19:22.174Z,101501.53
2022-08-10T23:22:04.151Z,101509.97
2022-08-10T23:24:55.061Z,101510.84
2022-08-10T23:27:37.989Z,101510.03
2022-08-10T23:30:17.521Z,101500.34
2022-08-10T23:32:51.831Z,101503.72
2022-08-10T23:36:29.875Z,101497.78
2022-08-10T23:38:07.909Z,101504.25
2022-08-10T23:40:35.728Z,101503.78
2022-08-10T23:43:03.450Z,101497.84
2022-08-10T23:45:31.477Z,101503.91
2022-08-10T23:48:22.823Z,101505.59
2022-08-10T23:51:16.481Z,101502.94
2022-08-10T23:53:45.267Z,101497.56
2022-08-10T23:56:17.184Z,101496.88
2022-08-10T23:58:46.487Z,101500.59
